Time;durP1;ratioP1;P1;durP2;ratioP2;P2;SDS_P1;SDS_P2;PMS_P1;PMS_P2;Temp;Humidity;BMP_temperature;BMP_pressure;BME280_temperature;BME280_humidity;BME280_pressure;Samples;Min_cycle;Max_cycle;Signal;HPM_P1;HPM_P2
2023/04/11 00:00:22;;;;;;;5.32;2.08;;;;;;;14.00;65.97;99531.06;4983532;28;20295;-86
2023/04/11 00:02:50;;;;;;;5.30;2.50;;;;;;;13.96;66.88;99525.19;4994055;28;20048;-85
2023/04/11 00:05:17;;;;;;;6.97;2.17;;;;;;;13.86;68.48;99514.66;5014073;28;20060;-85
2023/04/11 00:07:44;;;;;;;2.33;1.80;;;;;;;13.80;69.98;99511.84;4998605;28;20049;-86
2023/04/11 00:10:11;;;;;;;4.30;2.40;;;;;;;13.76;71.54;99510.50;4979895;28;20671;-85
2023/04/11 00:12:38;;;;;;;3.13;2.38;;;;;;;13.76;71.95;99513.16;5012763;28;20052;-86
2023/04/11 00:15:06;;;;;;;3.88;2.60;;;;;;;13.71;72.53;99504.81;4992321;28;20518;-85
2023/04/11 00:17:36;;;;;;;3.80;2.33;;;;;;;13.71;73.17;99502.13;4990815;28;20050;-86
2023/04/11 00:20:06;;;;;;;3.65;2.35;;;;;;;13.57;75.15;99491.13;4979314;28;20038;-86
2023/04/11 00:22:34;;;;;;;3.38;2.25;;;;;;;13.61;74.85;99503.16;5013616;28;20045;-85
2023/04/11 00:25:01;;;;;;;3.05;2.00;;;;;;;13.58;75.46;99502.63;4981913;28;20049;-85
2023/04/11 00:27:28;;;;;;;4.10;2.28;;;;;;;13.58;76.00;99500.78;4974252;28;20050;-86
2023/04/11 00:29:56;;;;;;;4.43;2.20;;;;;;;13.54;76.74;99490.63;5000288;28;20041;-85
2023/04/11 00:32:24;;;;;;;3.92;2.15;;;;;;;13.55;77.12;99482.44;5007902;28;20481;-86
2023/04/11 00:34:50;;;;;;;4.63;2.17;;;;;;;13.50;78.03;99495.44;5005558;28;20053;-85
2023/04/11 00:37:20;;;;;;;3.45;2.47;;;;;;;13.50;78.01;99491.94;5009885;28;20073;-86
2023/04/11 00:39:54;;;;;;;5.85;2.17;;;;;;;13.46;78.49;99494.09;4963011;28;21161;-86
2023/04/11 00:42:21;;;;;;;5.28;2.65;;;;;;;13.40;79.41;99490.22;4998497;28;20057;-85
2023/04/11 00:44:49;;;;;;;3.50;2.38;;;;;;;13.40;79.39;99479.56;4991585;28;20487;-86
2023/04/11 00:47:17;;;;;;;3.38;2.20;;;;;;;13.40;79.55;99481.41;4984203;28;20053;-86
2023/04/11 00:49:45;;;;;;;4.45;2.40;;;;;;;13.41;79.79;99483.09;4988489;28;20084;-85
2023/04/11 00:52:12;;;;;;;4.53;2.30;;;;;;;13.37;80.34;99476.41;4997576;28;20049;-85
2023/04/11 00:54:39;;;;;;;6.20;2.22;;;;;;;13.38;80.34;99486.91;4995141;28;20065;-86
2023/04/11 00:57:07;;;;;;;7.80;2.22;;;;;;;13.36;80.50;99512.06;4996490;28;20050;-86
2023/04/11 00:59:34;;;;;;;3.50;2.50;;;;;;;13.38;80.79;99515.38;5004633;28;20477;-85
2023/04/11 01:02:01;;;;;;;4.80;2.92;;;;;;;13.33;80.96;99507.03;5012157;28;20042;-85
2023/04/11 01:04:28;;;;;;;6.05;2.35;;;;;;;13.33;81.37;99501.72;5000834;28;20054;-85
2023/04/11 01:07:02;;;;;;;5.00;2.38;;;;;;;13.25;82.75;99513.16;5013207;28;20549;-85
2023/04/11 01:09:31;;;;;;;3.65;2.30;;;;;;;13.29;81.20;99508.38;4982602;28;20049;-86
2023/04/11 01:12:00;;;;;;;4.32;2.50;;;;;;;13.30;81.48;99512.69;4983863;28;20049;-85
2023/04/11 01:14:27;;;;;;;3.75;2.20;;;;;;;13.27;82.42;99513.88;4981177;28;20141;-85
2023/04/11 01:16:55;;;;;;;4.20;2.67;;;;;;;13.29;81.63;99513.72;4985834;28;20098;-85
2023/04/11 01:19:24;;;;;;;5.18;2.53;;;;;;;13.24;83.05;99516.81;4996029;28;20676;-85
2023/04/11 01:21:52;;;;;;;3.78;2.70;;;;;;;13.21;83.23;99523.31;4994481;28;20058;-85
2023/04/11 01:24:19;;;;;;;4.18;2.58;;;;;;;13.27;82.66;99516.53;4986510;28;20625;-85
2023/04/11 01:26:46;;;;;;;5.45;2.85;;;;;;;13.30;81.95;99505.53;4987550;28;20061;-85
2023/04/11 01:29:14;;;;;;;4.93;2.85;;;;;;;13.31;81.90;99509.88;5003325;28;20054;-85
2023/04/11 01:31:42;;;;;;;5.00;2.65;;;;;;;13.41;80.86;99509.75;5015906;28;20045;-86
2023/04/11 01:34:12;;;;;;;3.28;2.40;;;;;;;13.39;80.35;99506.41;4982435;28;20045;-85
2023/04/11 01:36:40;;;;;;;4.43;2.78;;;;;;;13.34;80.67;99503.41;5021868;28;20041;-85
2023/04/11 01:39:07;;;;;;;3.60;2.30;;;;;;;13.36;79.83;99514.75;4999340;28;20056;-85
2023/04/11 01:41:34;;;;;;;3.40;2.20;;;;;;;13.36;80.82;99530.75;4998204;28;20104;-85
2023/04/11 01:44:02;;;;;;;6.30;2.35;;;;;;;13.33;80.45;99539.91;4986651;28;20112;-85
2023/04/11 01:46:30;;;;;;;3.70;2.50;;;;;;;13.36;79.94;99546.75;4966557;28;20037;-86
2023/04/11 01:48:59;;;;;;;3.88;2.15;;;;;;;13.30;81.11;99536.69;5002422;28;20056;-85
2023/04/11 01:51:26;;;;;;;7.22;3.10;;;;;;;13.22;81.69;99527.63;5019016;28;20123;-85
2023/04/11 01:53:54;;;;;;;5.50;2.25;;;;;;;13.23;81.89;99507.16;5010629;28;20046;-85
2023/04/11 01:56:21;;;;;;;5.60;2.30;;;;;;;13.24;81.11;99500.81;5007755;28;20589;-86
2023/04/11 01:58:48;;;;;;;4.15;2.35;;;;;;;13.17;81.31;99492.63;5002687;28;20205;-84
2023/04/11 02:01:18;;;;;;;5.45;2.20;;;;;;;13.12;83.69;99510.94;5004721;28;20056;-86
2023/04/11 02:03:45;;;;;;;3.58;2.85;;;;;;;13.14;81.97;99494.78;5009847;28;20108;-85
2023/04/11 02:06:14;;;;;;;3.40;2.10;;;;;;;13.13;82.19;99496.63;5012162;28;20046;-85
2023/04/11 02:08:43;;;;;;;5.10;2.22;;;;;;;13.09;82.67;99502.44;5013433;28;20417;-86
2023/04/11 02:11:10;;;;;;;3.33;1.98;;;;;;;13.10;81.83;99498.75;4989160;28;20041;-85
2023/04/11 02:13:37;;;;;;;2.33;2.00;;;;;;;13.09;81.58;99513.09;5008244;28;20049;-86
2023/04/11 02:16:06;;;;;;;3.88;2.40;;;;;;;13.10;82.08;99514.75;5015881;28;20069;-85
2023/04/11 02:18:33;;;;;;;2.80;1.83;;;;;;;13.04;81.76;99511.72;4997760;28;20049;-85
2023/04/11 02:21:01;;;;;;;4.10;1.88;;;;;;;13.02;82.06;99510.22;4980120;28;20052;-86
2023/04/11 02:23:28;;;;;;;3.05;1.70;;;;;;;13.05;81.92;99509.91;4981628;28;20049;-85
2023/04/11 02:25:54;;;;;;;4.50;1.88;;;;;;;13.04;81.89;99489.56;4999459;28;20160;-85
2023/04/11 02:28:21;;;;;;;5.65;2.10;;;;;;;12.99;82.23;99494.56;5007209;28;20053;-86
2023/04/11 02:30:51;;;;;;;4.25;1.70;;;;;;;12.99;82.40;99507.88;4984252;28;20582;-85
2023/04/11 02:33:19;;;;;;;4.68;2.05;;;;;;;12.97;82.16;99504.53;5001959;28;20129;-85
2023/04/11 02:35:45;;;;;;;6.32;2.30;;;;;;;13.00;80.74;99499.72;4998817;28;20045;-85
2023/04/11 02:38:13;;;;;;;5.22;2.30;;;;;;;12.97;81.91;99505.34;5004791;28;20057;-85
2023/04/11 02:40:40;;;;;;;5.00;1.70;;;;;;;12.95;82.11;99490.53;5010591;28;20617;-85
2023/04/11 02:43:06;;;;;;;3.88;2.28;;;;;;;12.96;81.93;99497.53;4993554;28;20049;-85
2023/04/11 02:45:33;;;;;;;3.22;2.10;;;;;;;12.96;82.28;99509.03;4999500;28;20500;-85
2023/04/11 02:48:01;;;;;;;3.03;2.20;;;;;;;12.91;82.69;99507.84;4982202;28;20049;-85
2023/04/11 02:50:32;;;;;;;2.50;2.00;;;;;;;12.90;82.85;99515.00;4992105;28;20460;-85
2023/04/11 02:52:59;;;;;;;5.78;2.00;;;;;;;12.87;82.96;99514.47;5010041;28;20064;-85
2023/04/11 02:55:27;;;;;;;3.58;2.03;;;;;;;12.93;82.30;99503.19;5002142;28;20102;-85
2023/04/11 02:57:54;;;;;;;4.05;2.25;;;;;;;12.94;81.55;99529.66;5011430;28;20124;-84
2023/04/11 03:00:21;;;;;;;3.88;2.10;;;;;;;12.91;82.44;99530.00;4970939;28;20075;-85
2023/04/11 03:02:55;;;;;;;6.57;2.25;;;;;;;12.86;81.52;99526.97;4983581;28;20056;-85
2023/04/11 03:05:23;;;;;;;3.33;2.40;;;;;;;12.89;82.10;99529.31;4988652;28;20046;-86
2023/04/11 03:07:52;;;;;;;5.60;2.45;;;;;;;12.84;82.50;99534.28;4986832;28;20070;-85
2023/04/11 03:10:19;;;;;;;7.05;2.40;;;;;;;12.89;82.45;99544.47;4997777;28;20072;-85
2023/04/11 03:12:46;;;;;;;5.72;2.28;;;;;;;12.91;82.07;99537.16;4985882;28;20055;-85
2023/04/11 03:15:16;;;;;;;3.30;2.28;;;;;;;12.89;82.31;99545.28;4983078;28;20048;-86
2023/04/11 03:17:43;;;;;;;5.38;3.13;;;;;;;12.90;82.09;99557.66;5025491;28;20572;-85
2023/04/11 03:20:18;;;;;;;8.00;3.78;;;;;;;12.87;82.31;99570.44;4994627;28;20180;-86
2023/04/11 03:22:48;;;;;;;5.20;2.45;;;;;;;12.90;81.99;99570.97;5000277;28;20277;-85
2023/04/11 03:25:16;;;;;;;3.58;2.40;;;;;;;12.94;81.31;99584.81;4994450;28;20061;-85
2023/04/11 03:27:45;;;;;;;3.63;1.92;;;;;;;12.90;81.42;99591.44;4998744;28;20812;-86
2023/04/11 03:30:13;;;;;;;7.80;2.50;;;;;;;12.88;81.42;99580.13;4974830;28;20069;-85
2023/04/11 03:32:43;;;;;;;4.55;2.45;;;;;;;12.83;81.59;99583.25;4985355;28;20136;-85
2023/04/11 03:35:10;;;;;;;4.93;2.10;;;;;;;12.82;81.58;99585.06;4968756;28;20050;-85
2023/04/11 03:37:42;;;;;;;3.90;2.20;;;;;;;12.76;82.32;99583.03;4985216;28;20049;-85
2023/04/11 03:40:09;;;;;;;4.65;2.20;;;;;;;12.80;81.51;99571.06;4993194;28;20049;-85
2023/04/11 03:42:39;;;;;;;2.67;2.13;;;;;;;12.76;81.58;99574.19;5001108;28;20041;-85
2023/04/11 03:45:12;;;;;;;3.83;1.65;;;;;;;12.47;78.73;99585.97;4986282;28;20064;-85
2023/04/11 03:47:39;;;;;;;5.03;1.77;;;;;;;12.57;77.53;99601.88;5003421;28;20088;-86
2023/04/11 03:50:07;;;;;;;6.80;1.88;;;;;;;12.41;75.81;99602.56;4967931;28;20746;-86
2023/04/11 03:52:40;;;;;;;3.30;1.23;;;;;;;12.41;76.27;99604.38;5012982;28;20060;-86
2023/04/11 03:55:11;;;;;;;2.95;1.25;;;;;;;12.21;77.24;99607.19;4991411;28;20113;-85
2023/04/11 03:57:39;;;;;;;6.35;1.30;;;;;;;12.33;76.41;99589.19;4991037;28;20045;-86
2023/04/11 04:00:07;;;;;;;2.95;1.38;;;;;;;12.29;76.89;99591.31;4986135;28;20132;-85
2023/04/11 04:02:42;;;;;;;1.67;1.15;;;;;;;12.27;76.77;99595.94;5006008;28;20433;-85
2023/04/11 04:05:13;;;;;;;5.65;1.30;;;;;;;12.27;76.69;99584.47;4969864;28;20041;-86
2023/04/11 04:07:41;;;;;;;3.05;1.00;;;;;;;12.19;77.75;99581.72;4998462;28;20124;-85
2023/04/11 04:10:16;;;;;;;4.72;1.42;;;;;;;12.21;78.22;99588.56;4997951;28;20050;-85
2023/04/11 04:12:48;;;;;;;4.22;1.58;;;;;;;12.11;79.75;99588.66;5014934;28;20060;-86
2023/04/11 04:15:18;;;;;;;5.32;1.35;;;;;;;12.11;79.71;99609.09;4967496;28;20048;-86
2023/04/11 04:17:47;;;;;;;4.90;1.00;;;;;;;12.04;80.38;99608.03;4995929;28;20045;-85
2023/04/11 04:20:21;;;;;;;5.32;1.02;;;;;;;12.08;81.19;99622.72;5002543;28;20065;-86
2023/04/11 04:22:54;;;;;;;5.93;1.23;;;;;;;11.95;79.17;99617.75;4966287;28;20073;-86
2023/04/11 04:25:30;;;;;;;4.72;1.45;;;;;;;11.98;78.06;99614.78;5003970;28;20483;-86
2023/04/11 04:27:59;;;;;;;2.22;1.40;;;;;;;11.98;78.75;99613.94;4976319;28;20050;-85
2023/04/11 04:30:37;;;;;;;5.70;2.47;;;;;;;11.90;80.60;99612.03;4969090;28;20044;-85
2023/04/11 04:33:11;;;;;;;5.28;2.00;;;;;;;11.92;76.76;99605.56;4995434;28;20045;-86
2023/04/11 04:35:43;;;;;;;5.22;1.35;;;;;;;11.84;80.26;99604.63;4979150;28;20140;-86
2023/04/11 04:38:16;;;;;;;3.15;2.15;;;;;;;11.83;80.61;99610.94;4981871;28;20049;-86
2023/04/11 04:40:53;;;;;;;2.72;1.05;;;;;;;11.84;81.19;99609.97;4993874;28;20059;-86
2023/04/11 04:43:23;;;;;;;5.90;1.58;;;;;;;11.85;80.32;99619.59;4999087;28;20077;-85
2023/04/11 04:46:03;;;;;;;5.10;1.10;;;;;;;11.85;81.20;99620.44;4964368;28;20776;-86
2023/04/11 04:48:37;;;;;;;8.25;1.25;;;;;;;11.77;81.93;99593.75;4986206;28;20137;-85
2023/04/11 04:51:05;;;;;;;5.80;0.90;;;;;;;11.76;81.22;99586.75;4968497;28;20056;-84
2023/04/11 04:53:37;;;;;;;1.30;1.00;;;;;;;11.79;80.52;99612.22;5011663;28;20042;-85
2023/04/11 04:56:07;;;;;;;1.75;1.10;;;;;;;11.78;81.22;99623.84;4976645;28;20148;-85
2023/04/11 04:58:38;;;;;;;5.00;1.27;;;;;;;11.73;81.84;99638.44;4963730;28;20038;-85
2023/04/11 05:01:10;;;;;;;2.95;1.33;;;;;;;11.74;81.71;99639.28;4994408;28;20076;-86
2023/04/11 05:03:37;;;;;;;2.10;1.13;;;;;;;11.78;81.08;99651.31;5011395;28;20144;-86
2023/04/11 05:06:09;;;;;;;4.97;0.93;;;;;;;11.68;80.43;99654.00;4969238;28;20057;-85
2023/04/11 05:08:37;;;;;;;1.63;0.95;;;;;;;11.72;79.76;99658.03;4972044;28;20568;-85
2023/04/11 05:11:06;;;;;;;3.72;0.93;;;;;;;11.75;79.01;99659.56;4987343;28;20394;-86
2023/04/11 05:13:35;;;;;;;5.20;1.08;;;;;;;11.74;78.63;99655.22;4997656;28;20215;-85
2023/04/11 05:16:03;;;;;;;6.70;1.00;;;;;;;11.70;79.43;99651.19;5020121;28;20450;-85
2023/04/11 05:18:31;;;;;;;3.10;0.95;;;;;;;11.67;81.21;99636.34;4988940;28;20183;-86
2023/04/11 05:20:58;;;;;;;3.67;1.25;;;;;;;11.64;81.18;99641.13;5017367;28;20056;-86
2023/04/11 05:23:31;;;;;;;4.03;1.73;;;;;;;11.62;81.32;99648.41;5015670;28;20050;-85
2023/04/11 05:26:01;;;;;;;1.65;1.08;;;;;;;11.67;80.90;99662.13;4988913;28;20050;-85
2023/04/11 05:28:30;;;;;;;4.25;1.15;;;;;;;11.65;81.32;99658.75;4989856;28;20162;-85
2023/04/11 05:30:57;;;;;;;2.10;1.40;;;;;;;11.66;81.71;99652.47;5001266;28;20615;-86
2023/04/11 05:33:25;;;;;;;4.20;1.70;;;;;;;11.64;82.33;99667.72;5008541;28;20633;-85
2023/04/11 05:35:53;;;;;;;3.47;1.70;;;;;;;11.61;81.59;99668.03;4984771;28;20579;-85
2023/04/11 05:38:20;;;;;;;3.92;1.50;;;;;;;11.64;81.12;99670.41;5017547;28;20057;-86
2023/04/11 05:40:46;;;;;;;5.32;2.47;;;;;;;11.66;81.21;99663.94;5001297;28;20616;-86
2023/04/11 05:43:14;;;;;;;6.20;3.15;;;;;;;11.65;81.76;99661.41;4986599;28;20056;-86
2023/04/11 05:45:41;;;;;;;3.67;2.85;;;;;;;11.62;81.94;99661.72;4971233;28;20073;-86
2023/04/11 05:48:08;;;;;;;2.25;1.33;;;;;;;11.60;82.49;99658.38;4999717;28;20068;-85
2023/04/11 05:50:35;;;;;;;7.07;2.85;;;;;;;11.67;82.06;99659.47;5026284;28;20045;-86
2023/04/11 05:53:02;;;;;;;3.63;1.77;;;;;;;11.66;81.90;99652.47;4972504;28;20414;-86
2023/04/11 05:55:29;;;;;;;4.30;1.67;;;;;;;11.68;82.27;99661.97;5005296;28;20136;-85
2023/04/11 05:57:56;;;;;;;3.10;1.50;;;;;;;11.69;82.03;99668.13;5026307;28;20051;-85
2023/04/11 06:00:23;;;;;;;2.88;1.23;;;;;;;11.67;82.21;99660.28;5027475;28;20072;-85
2023/04/11 06:02:51;;;;;;;5.28;1.20;;;;;;;11.79;81.75;99668.94;5022522;28;20056;-85
2023/04/11 06:05:20;;;;;;;3.00;1.10;;;;;;;11.83;81.45;99672.13;5003619;28;20048;-85
2023/04/11 06:07:47;;;;;;;1.63;1.00;;;;;;;11.93;81.13;99676.47;4984738;28;20666;-85
2023/04/11 06:10:14;;;;;;;9.98;2.22;;;;;;;11.90;80.59;99673.22;4979010;28;20054;-85
2023/04/11 06:12:41;;;;;;;2.80;2.30;;;;;;;12.00;79.92;99671.34;5004967;28;20049;-85
2023/04/11 06:15:10;;;;;;;4.28;1.60;;;;;;;11.99;79.97;99676.84;5015678;28;20049;-86
2023/04/11 06:17:37;;;;;;;6.18;3.47;;;;;;;12.00;80.13;99679.34;4972341;28;20049;-86
2023/04/11 06:20:06;;;;;;;5.07;1.95;;;;;;;12.03;80.09;99680.88;5013841;28;20407;-86
2023/04/11 06:22:33;;;;;;;4.57;1.48;;;;;;;12.06;79.46;99676.09;5003027;28;20045;-85
2023/04/11 06:25:00;;;;;;;5.55;2.95;;;;;;;12.07;79.58;99674.28;4996237;28;20057;-85
2023/04/11 06:27:26;;;;;;;4.72;1.90;;;;;;;12.13;79.31;99677.16;5001146;28;20590;-85
2023/04/11 06:29:53;;;;;;;3.80;1.60;;;;;;;12.13;78.83;99671.84;5021453;28;20105;-86
2023/04/11 06:32:20;;;;;;;4.70;1.58;;;;;;;12.15;79.00;99685.84;5006440;28;20490;-85
2023/04/11 06:34:47;;;;;;;7.25;1.70;;;;;;;12.21;78.65;99689.72;4997103;28;20601;-85
2023/04/11 06:37:14;;;;;;;5.22;1.67;;;;;;;12.27;77.87;99689.13;4978463;28;20053;-85
2023/04/11 06:39:41;;;;;;;6.75;1.42;;;;;;;12.34;77.42;99684.88;5000652;28;20049;-85
2023/04/11 06:42:08;;;;;;;5.85;1.77;;;;;;;12.35;77.59;99683.88;5001073;28;20052;-86
2023/04/11 06:44:34;;;;;;;10.35;1.52;;;;;;;12.41;77.35;99693.09;5011458;28;20074;-85
2023/04/11 06:47:02;;;;;;;6.72;1.27;;;;;;;12.38;77.78;99701.38;5000291;28;20486;-85
2023/04/11 06:49:29;;;;;;;5.80;1.33;;;;;;;12.51;77.03;99703.69;5015113;28;20318;-86
2023/04/11 06:51:56;;;;;;;5.82;1.42;;;;;;;12.56;76.57;99701.41;4971859;28;20041;-85
2023/04/11 06:54:23;;;;;;;4.68;1.35;;;;;;;12.64;76.27;99701.47;4997488;28;20072;-86
2023/04/11 06:56:50;;;;;;;4.28;1.52;;;;;;;12.63;76.07;99706.97;4982872;28;20040;-85
2023/04/11 06:59:20;;;;;;;5.60;1.70;;;;;;;12.65;75.66;99711.16;4998063;28;20099;-86
2023/04/11 07:01:48;;;;;;;6.15;1.25;;;;;;;12.60;76.11;99710.78;5006589;28;20125;-86
2023/04/11 07:04:15;;;;;;;6.57;1.25;;;;;;;12.68;75.58;99715.34;5006592;28;20042;-86
2023/04/11 07:06:42;;;;;;;5.85;1.63;;;;;;;12.66;75.86;99723.47;5026265;28;20064;-85
2023/04/11 07:09:09;;;;;;;6.82;1.52;;;;;;;12.71;75.24;99723.03;5015742;28;20096;-86
2023/04/11 07:11:37;;;;;;;5.43;1.15;;;;;;;12.70;75.82;99718.69;5014532;28;20052;-86
2023/04/11 07:14:04;;;;;;;5.38;1.63;;;;;;;12.77;75.47;99719.75;5003026;28;20671;-86
2023/04/11 07:16:31;;;;;;;9.13;1.83;;;;;;;12.79;75.66;99733.75;5018917;28;20069;-86
2023/04/11 07:18:58;;;;;;;8.25;1.48;;;;;;;12.88;75.58;99732.00;5002330;28;20133;-86
2023/04/11 07:21:27;;;;;;;8.30;1.35;;;;;;;12.92;73.27;99733.38;5012489;28;20057;-86
2023/04/11 07:23:54;;;;;;;6.15;2.00;;;;;;;12.95;73.60;99731.25;4998368;28;20585;-86
2023/04/11 07:26:22;;;;;;;6.82;1.50;;;;;;;12.90;73.39;99740.66;5007483;28;20040;-86
2023/04/11 07:28:50;;;;;;;5.57;1.42;;;;;;;12.93;73.27;99737.72;4988095;28;20550;-86
2023/04/11 07:31:18;;;;;;;9.05;1.98;;;;;;;12.91;73.64;99729.88;5011355;28;20056;-86
2023/04/11 07:33:45;;;;;;;4.60;1.45;;;;;;;12.98;73.79;99743.44;4983434;28;20061;-86
2023/04/11 07:36:12;;;;;;;5.57;1.35;;;;;;;12.88;71.45;99748.84;5023128;28;20105;-86
2023/04/11 07:38:40;;;;;;;8.27;1.50;;;;;;;12.89;72.40;99750.50;4980038;28;20069;-86
2023/04/11 07:41:08;;;;;;;7.40;1.45;;;;;;;12.82;71.44;99744.09;5011457;28;20042;-86
2023/04/11 07:43:36;;;;;;;7.00;1.90;;;;;;;12.89;71.29;99747.84;5012011;28;20063;-85
2023/04/11 07:46:03;;;;;;;7.82;1.58;;;;;;;12.84;71.33;99749.28;4991715;28;20080;-86
2023/04/11 07:48:31;;;;;;;7.43;1.45;;;;;;;12.82;71.09;99744.97;4998678;28;20046;-86
2023/04/11 07:50:57;;;;;;;7.65;1.90;;;;;;;12.72;71.88;99754.84;5009320;28;20034;-86
2023/04/11 07:53:24;;;;;;;7.30;1.90;;;;;;;12.77;71.33;99752.56;5020708;28;20052;-85
2023/04/11 07:55:51;;;;;;;8.77;2.58;;;;;;;12.84;71.33;99754.63;5015762;28;20049;-86
2023/04/11 07:58:17;;;;;;;6.32;1.67;;;;;;;12.91;70.54;99759.19;5013719;28;20053;-85
2023/04/11 08:00:45;;;;;;;12.95;3.70;;;;;;;12.87;70.30;99765.78;5016991;28;20052;-86
2023/04/11 08:03:12;;;;;;;9.27;1.70;;;;;;;12.91;70.35;99769.00;4995199;28;20592;-86
2023/04/11 08:05:39;;;;;;;6.68;1.58;;;;;;;12.93;69.45;99767.88;4984590;28;20048;-86
2023/04/11 08:08:06;;;;;;;12.55;1.88;;;;;;;12.94;69.67;99772.19;5001465;28;20061;-86
2023/04/11 08:10:33;;;;;;;6.57;1.83;;;;;;;12.95;70.47;99773.03;5008896;28;20044;-86
2023/04/11 08:13:00;;;;;;;11.60;1.70;;;;;;;13.02;69.72;99774.94;4992613;28;20798;-86
2023/04/11 08:15:27;;;;;;;11.57;1.90;;;;;;;12.92;68.73;99773.34;4999629;28;20060;-86
2023/04/11 08:17:55;;;;;;;10.27;1.95;;;;;;;12.91;69.26;99775.19;4999448;28;20076;-86
2023/04/11 08:20:23;;;;;;;5.25;2.15;;;;;;;12.86;68.55;99777.47;5010296;28;20053;-86
2023/04/11 08:22:50;;;;;;;8.68;1.88;;;;;;;12.85;68.81;99790.91;4981059;28;20058;-86
2023/04/11 08:25:23;;;;;;;11.95;2.92;;;;;;;12.80;68.26;99778.91;5014693;28;20046;-86
2023/04/11 08:27:51;;;;;;;9.93;2.30;;;;;;;12.74;69.64;99781.31;5010787;28;20053;-86
2023/04/11 08:30:19;;;;;;;15.73;2.83;;;;;;;12.74;69.24;99792.81;4997758;28;20053;-86
2023/04/11 08:32:45;;;;;;;10.68;2.30;;;;;;;12.74;68.56;99784.81;5010337;28;20045;-86
2023/04/11 08:35:12;;;;;;;8.10;2.08;;;;;;;12.75;68.98;99778.53;5011150;28;20101;-85
2023/04/11 08:37:40;;;;;;;11.63;2.05;;;;;;;12.89;68.21;99757.66;5020159;28;20132;-86
2023/04/11 08:40:07;;;;;;;10.45;1.90;;;;;;;13.05;69.16;99773.78;5004734;28;20057;-86
2023/04/11 08:42:34;;;;;;;8.07;1.77;;;;;;;13.22;68.10;99786.28;5006355;28;20048;-85
2023/04/11 08:45:03;;;;;;;10.38;1.95;;;;;;;13.14;66.45;99796.03;5014061;28;20075;-86
2023/04/11 08:47:30;;;;;;;12.27;2.50;;;;;;;13.10;65.38;99786.66;4989013;28;20503;-86
2023/04/11 08:49:57;;;;;;;6.80;2.08;;;;;;;13.04;65.07;99798.78;5012752;28;20046;-85
2023/04/11 08:52:24;;;;;;;8.88;1.77;;;;;;;13.01;64.99;99815.09;5005691;28;20312;-86
2023/04/11 08:54:53;;;;;;;10.15;1.90;;;;;;;13.04;64.96;99810.28;5006803;28;20037;-86
2023/04/11 08:57:30;;;;;;;10.98;1.80;;;;;;;13.03;65.13;99805.13;5016640;28;20045;-85
2023/04/11 09:00:13;;;;;;;13.95;2.53;;;;;;;13.07;66.20;99802.97;5002711;28;20738;-86
2023/04/11 09:03:00;;;;;;;13.23;2.35;;;;;;;12.99;66.79;99809.06;5017637;28;20161;-85
2023/04/11 09:05:42;;;;;;;8.70;2.13;;;;;;;13.04;66.97;99806.78;5017843;28;20108;-86
2023/04/11 09:08:14;;;;;;;12.32;1.90;;;;;;;13.07;65.59;99816.31;4987573;28;20121;-86
2023/04/11 09:10:46;;;;;;;10.52;3.35;;;;;;;13.10;64.89;99808.00;4998146;28;20045;-86
2023/04/11 09:13:23;;;;;;;7.97;2.00;;;;;;;13.09;66.04;99817.81;5009715;28;20064;-86
2023/04/11 09:16:16;;;;;;;9.25;2.10;;;;;;;13.12;65.28;99817.50;5001728;28;20053;-85
2023/04/11 09:18:45;;;;;;;10.35;2.20;;;;;;;13.16;64.98;99810.91;4994962;28;20057;-86
2023/04/11 09:21:13;;;;;;;11.75;2.45;;;;;;;13.22;65.01;99801.44;5013009;28;20649;-85
2023/04/11 09:23:40;;;;;;;6.28;1.55;;;;;;;13.24;63.59;99805.63;5000430;28;20123;-85
2023/04/11 09:26:08;;;;;;;8.07;1.83;;;;;;;13.30;63.00;99796.19;5010476;28;20041;-86
2023/04/11 09:28:43;;;;;;;11.27;2.25;;;;;;;13.25;60.47;99786.00;5012581;28;20099;-85
2023/04/11 09:31:11;;;;;;;11.40;2.80;;;;;;;13.38;59.65;99796.28;5003461;28;20045;-86
2023/04/11 09:33:57;;;;;;;11.18;1.85;;;;;;;13.26;58.19;99802.81;4961534;28;20041;-85
2023/04/11 09:36:28;;;;;;;7.13;2.08;;;;;;;13.42;61.43;99800.31;5006141;28;20054;-86
2023/04/11 09:38:55;;;;;;;14.07;2.13;;;;;;;13.40;60.36;99804.94;5005507;28;20200;-86
2023/04/11 09:41:33;;;;;;;10.52;1.65;;;;;;;13.42;59.15;99805.63;5014919;28;20041;-86
2023/04/11 09:44:00;;;;;;;7.28;1.70;;;;;;;13.46;59.44;99801.69;4999926;28;20053;-86
2023/04/11 09:46:27;;;;;;;17.00;2.60;;;;;;;13.52;59.81;99802.88;5013659;28;20546;-86
2023/04/11 09:48:54;;;;;;;7.70;1.38;;;;;;;13.61;60.48;99807.28;4968670;28;20445;-85
2023/04/11 09:51:21;;;;;;;6.90;1.38;;;;;;;13.66;59.31;99802.31;4966720;28;20044;-86
2023/04/11 09:53:51;;;;;;;9.20;1.52;;;;;;;13.61;57.57;99809.09;5016213;28;20042;-86
2023/04/11 09:56:19;;;;;;;12.73;2.08;;;;;;;13.72;59.26;99822.22;5011485;28;20332;-86
2023/04/11 09:58:46;;;;;;;5.85;1.67;;;;;;;13.77;59.52;99816.41;5003970;28;20139;-86
2023/04/11 10:01:14;;;;;;;11.07;2.25;;;;;;;13.77;58.20;99821.75;5001050;28;20136;-85
2023/04/11 10:03:42;;;;;;;6.93;1.50;;;;;;;13.84;57.54;99804.94;5005458;28;20518;-86
2023/04/11 10:06:13;;;;;;;7.43;1.50;;;;;;;13.86;57.45;99815.44;4984607;28;20046;-86
2023/04/11 10:08:40;;;;;;;4.68;1.85;;;;;;;13.88;57.31;99800.13;5025874;28;20400;-86
2023/04/11 10:11:08;;;;;;;7.28;1.58;;;;;;;13.98;58.27;99798.16;5012755;28;20056;-86
2023/04/11 10:13:38;;;;;;;14.73;2.88;;;;;;;13.92;56.59;99792.63;4996891;28;20038;-85
2023/04/11 10:16:08;;;;;;;23.33;2.05;;;;;;;13.97;56.40;99798.31;5014413;28;20081;-86
2023/04/11 10:18:36;;;;;;;9.18;2.17;;;;;;;13.94;56.23;99785.28;5013736;28;20052;-86
2023/04/11 10:21:04;;;;;;;6.88;1.85;;;;;;;13.94;56.13;99791.47;5008406;28;20049;-85
2023/04/11 10:24:09;;;;;;;11.10;2.17;;;;;;;13.84;54.96;99806.75;5015163;28;20079;-85
2023/04/11 10:26:51;;;;;;;10.45;1.48;;;;;;;13.85;54.41;99792.44;5008997;28;20084;-86
2023/04/11 10:29:26;;;;;;;16.17;2.45;;;;;;;13.70;54.40;99804.69;5018695;28;20045;-86
2023/04/11 10:32:23;;;;;;;8.57;2.22;;;;;;;13.62;54.75;99808.13;5017549;28;20050;-86
2023/04/11 10:34:49;;;;;;;10.05;1.63;;;;;;;13.66;54.30;99806.81;5000696;28;20049;-86
2023/04/11 10:37:17;;;;;;;5.63;1.48;;;;;;;13.74;55.29;99798.00;5014871;28;20049;-86
2023/04/11 10:39:46;;;;;;;8.50;1.60;;;;;;;13.66;54.57;99799.66;5019736;28;20424;-86
2023/04/11 10:42:41;;;;;;;11.50;1.70;;;;;;;13.54;54.19;99805.41;5005882;28;20160;-86
2023/04/11 10:45:27;;;;;;;6.32;1.70;;;;;;;13.57;54.34;99811.25;4988105;28;22561;-85
2023/04/11 10:47:57;;;;;;;11.75;1.80;;;;;;;13.58;56.09;99809.41;5024610;28;20108;-85
2023/04/11 10:50:30;;;;;;;14.00;1.63;;;;;;;13.55;55.76;99793.72;5018792;28;20053;-87
2023/04/11 10:53:08;;;;;;;7.07;1.73;;;;;;;13.64;56.60;99801.66;5026274;28;20607;-86
2023/04/11 10:55:46;;;;;;;6.20;1.33;;;;;;;13.56;57.40;99795.41;4979688;28;20049;-86
2023/04/11 10:58:21;;;;;;;4.68;1.40;;;;;;;13.74;57.24;99795.34;5008664;28;20048;-86
2023/04/11 11:00:48;;;;;;;13.93;1.63;;;;;;;13.64;55.00;99793.63;5010403;28;20491;-86
2023/04/11 11:03:24;;;;;;;5.47;1.60;;;;;;;13.41;54.21;99785.31;5016335;28;20041;-86
2023/04/11 11:05:59;;;;;;;7.40;1.33;;;;;;;13.75;55.33;99791.69;5009409;28;20080;-86
2023/04/11 11:08:32;;;;;;;3.70;0.90;;;;;;;13.82;55.08;99795.41;5010559;28;20395;-85
2023/04/11 11:11:05;;;;;;;2.25;1.00;;;;;;;13.81;54.21;99788.38;5010442;28;20537;-86
2023/04/11 11:13:43;;;;;;;3.55;1.10;;;;;;;13.82;53.45;99800.75;4999210;28;20131;-85
2023/04/11 11:16:21;;;;;;;4.35;1.38;;;;;;;13.97;53.67;99798.31;5013272;28;20299;-85
2023/04/11 11:18:57;;;;;;;5.70;1.20;;;;;;;13.74;52.91;99782.00;4976902;28;20116;-86
2023/04/11 11:21:27;;;;;;;8.65;1.70;;;;;;;13.81;54.32;99786.56;4973353;28;20060;-86
2023/04/11 11:23:59;;;;;;;8.85;1.50;;;;;;;13.58;53.29;99788.06;5010005;28;20506;-85
2023/04/11 11:26:35;;;;;;;8.65;1.95;;;;;;;13.73;53.60;99793.69;5008630;28;20470;-86
2023/04/11 11:29:04;;;;;;;7.63;1.40;;;;;;;13.74;53.52;99780.19;5012287;28;20038;-86
2023/04/11 11:31:46;;;;;;;7.47;1.20;;;;;;;13.78;54.04;99786.88;5004359;28;20045;-87
2023/04/11 11:34:29;;;;;;;10.43;1.67;;;;;;;13.75;51.32;99795.19;5013388;28;20132;-86
2023/04/11 11:36:57;;;;;;;7.50;1.48;;;;;;;13.78;53.41;99802.88;4998619;28;20054;-86
2023/04/11 11:39:25;;;;;;;5.13;1.10;;;;;;;13.79;53.60;99815.25;4994308;28;20060;-86
2023/04/11 11:41:52;;;;;;;7.78;1.45;;;;;;;13.89;52.83;99825.81;5012098;28;20068;-86